sensor_id;sensor_type;location;lat;lon;timestamp;temperature;humidity
75210;DHT22;63796;53.136;14.882;2023-07-30T00:02:22;18.10;99.90
75210;DHT22;63796;53.136;14.882;2023-07-30T00:04:49;18.10;99.90
75210;DHT22;63796;53.136;14.882;2023-07-30T00:07:16;18.10;99.90
75210;DHT22;63796;53.136;14.882;2023-07-30T00:09:43;18.10;99.90
75210;DHT22;63796;53.136;14.882;2023-07-30T00:12:11;18.10;99.90
75210;DHT22;63796;53.136;14.882;2023-07-30T00:14:38;18.10;99.90
75210;DHT22;63796;53.136;14.882;2023-07-30T00:17:05;18.00;99.90
75210;DHT22;63796;53.136;14.882;2023-07-30T00:19:32;18.10;99.90
75210;DHT22;63796;53.136;14.882;2023-07-30T00:22:00;18.10;99.90
75210;DHT22;63796;53.136;14.882;2023-07-30T00:24:27;18.00;99.90
75210;DHT22;63796;53.136;14.882;2023-07-30T00:26:54;18.10;99.90
75210;DHT22;63796;53.136;14.882;2023-07-30T00:29:21;18.00;99.90
75210;DHT22;63796;53.136;14.882;2023-07-30T00:31:48;18.00;99.90
75210;DHT22;63796;53.136;14.882;2023-07-30T00:34:15;18.00;99.90
75210;DHT22;63796;53.136;14.882;2023-07-30T00:36:42;17.90;99.90
75210;DHT22;63796;53.136;14.882;2023-07-30T00:39:10;17.90;99.90
75210;DHT22;63796;53.136;14.882;2023-07-30T00:41:38;17.80;99.90
75210;DHT22;63796;53.136;14.882;2023-07-30T00:44:05;17.70;99.90
75210;DHT22;63796;53.136;14.882;2023-07-30T00:46:32;17.70;99.90
75210;DHT22;63796;53.136;14.882;2023-07-30T00:49:00;17.70;99.90
75210;DHT22;63796;53.136;14.882;2023-07-30T00:51:27;17.70;99.90
75210;DHT22;63796;53.136;14.882;2023-07-30T00:53:56;17.60;99.90
75210;DHT22;63796;53.136;14.882;2023-07-30T00:56:23;17.60;99.90
75210;DHT22;63796;53.136;14.882;2023-07-30T00:58:50;17.50;99.90
75210;DHT22;63796;53.136;14.882;2023-07-30T01:01:19;17.60;99.90
75210;DHT22;63796;53.136;14.882;2023-07-30T01:03:46;17.50;99.90
75210;DHT22;63796;53.136;14.882;2023-07-30T01:06:14;17.50;99.90
75210;DHT22;63796;53.136;14.882;2023-07-30T01:08:41;17.40;99.90
75210;DHT22;63796;53.136;14.882;2023-07-30T01:11:08;17.40;99.90
75210;DHT22;63796;53.136;14.882;2023-07-30T01:13:36;17.40;99.90
75210;DHT22;63796;53.136;14.882;2023-07-30T01:16:03;17.40;99.90
75210;DHT22;63796;53.136;14.882;2023-07-30T01:18:30;17.30;99.90
75210;DHT22;63796;53.136;14.882;2023-07-30T01:20:58;17.40;99.90
75210;DHT22;63796;53.136;14.882;2023-07-30T01:23:26;17.30;99.90
75210;DHT22;63796;53.136;14.882;2023-07-30T01:25:58;17.30;99.90
75210;DHT22;63796;53.136;14.882;2023-07-30T01:28:29;17.30;99.90
75210;DHT22;63796;53.136;14.882;2023-07-30T01:31:10;17.20;99.90
75210;DHT22;63796;53.136;14.882;2023-07-30T01:33:41;17.20;99.90
75210;DHT22;63796;53.136;14.882;2023-07-30T01:36:10;17.20;99.90
75210;DHT22;63796;53.136;14.882;2023-07-30T01:38:40;17.30;99.90
75210;DHT22;63796;53.136;14.882;2023-07-30T01:41:09;17.30;99.90
75210;DHT22;63796;53.136;14.882;2023-07-30T01:43:36;17.20;99.90
75210;DHT22;63796;53.136;14.882;2023-07-30T01:46:03;17.30;99.90
75210;DHT22;63796;53.136;14.882;2023-07-30T01:48:30;17.40;99.90
75210;DHT22;63796;53.136;14.882;2023-07-30T01:50:58;17.40;99.90
75210;DHT22;63796;53.136;14.882;2023-07-30T01:53:25;17.30;99.90
75210;DHT22;63796;53.136;14.882;2023-07-30T01:55:52;17.40;99.90
75210;DHT22;63796;53.136;14.882;2023-07-30T01:58:19;17.30;99.90
75210;DHT22;63796;53.136;14.882;2023-07-30T02:00:46;17.20;99.90
75210;DHT22;63796;53.136;14.882;2023-07-30T02:03:13;17.20;99.90
75210;DHT22;63796;53.136;14.882;2023-07-30T02:05:41;17.20;99.90
75210;DHT22;63796;53.136;14.882;2023-07-30T02:08:08;17.20;99.90
75210;DHT22;63796;53.136;14.882;2023-07-30T02:10:35;17.20;99.90
75210;DHT22;63796;53.136;14.882;2023-07-30T02:13:02;17.10;99.90
75210;DHT22;63796;53.136;14.882;2023-07-30T02:15:29;17.10;99.90
75210;DHT22;63796;53.136;14.882;2023-07-30T02:17:56;17.00;99.90
75210;DHT22;63796;53.136;14.882;2023-07-30T02:20:23;17.00;99.90
75210;DHT22;63796;53.136;14.882;2023-07-30T02:22:50;16.90;99.90
75210;DHT22;63796;53.136;14.882;2023-07-30T02:25:17;16.90;99.90
75210;DHT22;63796;53.136;14.882;2023-07-30T02:27:45;16.80;99.90
75210;DHT22;63796;53.136;14.882;2023-07-30T02:30:12;16.90;99.90
75210;DHT22;63796;53.136;14.882;2023-07-30T02:32:41;16.90;99.90
75210;DHT22;63796;53.136;14.882;2023-07-30T02:35:08;16.80;99.90
75210;DHT22;63796;53.136;14.882;2023-07-30T02:37:35;16.90;99.90
75210;DHT22;63796;53.136;14.882;2023-07-30T02:40:02;16.90;99.90
75210;DHT22;63796;53.136;14.882;2023-07-30T02:42:31;16.80;99.90
75210;DHT22;63796;53.136;14.882;2023-07-30T02:44:58;16.80;99.90
75210;DHT22;63796;53.136;14.882;2023-07-30T02:47:25;16.80;99.90
75210;DHT22;63796;53.136;14.882;2023-07-30T02:49:53;16.80;99.90
75210;DHT22;63796;53.136;14.882;2023-07-30T02:52:20;16.70;99.90
75210;DHT22;63796;53.136;14.882;2023-07-30T02:54:47;16.70;99.90
75210;DHT22;63796;53.136;14.882;2023-07-30T02:57:14;16.60;99.90
75210;DHT22;63796;53.136;14.882;2023-07-30T02:59:41;16.60;99.90
75210;DHT22;63796;53.136;14.882;2023-07-30T03:02:08;16.60;99.90
75210;DHT22;63796;53.136;14.882;2023-07-30T03:04:36;16.50;99.90
75210;DHT22;63796;53.136;14.882;2023-07-30T03:07:03;16.50;99.90
75210;DHT22;63796;53.136;14.882;2023-07-30T03:09:30;16.50;99.90
75210;DHT22;63796;53.136;14.882;2023-07-30T03:11:57;16.50;99.90
75210;DHT22;63796;53.136;14.882;2023-07-30T03:14:26;16.50;99.90
75210;DHT22;63796;53.136;14.882;2023-07-30T03:16:53;16.30;99.90
75210;DHT22;63796;53.136;14.882;2023-07-30T03:19:20;16.20;99.90
75210;DHT22;63796;53.136;14.882;2023-07-30T03:21:47;16.20;99.90
75210;DHT22;63796;53.136;14.882;2023-07-30T03:24:14;16.20;99.90
75210;DHT22;63796;53.136;14.882;2023-07-30T03:26:41;16.30;99.90
75210;DHT22;63796;53.136;14.882;2023-07-30T03:29:08;16.20;99.90
75210;DHT22;63796;53.136;14.882;2023-07-30T03:31:35;16.30;99.90
75210;DHT22;63796;53.136;14.882;2023-07-30T03:34:03;16.20;99.90
75210;DHT22;63796;53.136;14.882;2023-07-30T03:36:30;16.20;99.90
75210;DHT22;63796;53.136;14.882;2023-07-30T03:38:57;16.20;99.90
75210;DHT22;63796;53.136;14.882;2023-07-30T03:41:24;16.20;99.90
75210;DHT22;63796;53.136;14.882;2023-07-30T03:43:51;16.30;99.90
75210;DHT22;63796;53.136;14.882;2023-07-30T03:46:18;16.40;99.90
75210;DHT22;63796;53.136;14.882;2023-07-30T03:48:47;16.50;99.90
75210;DHT22;63796;53.136;14.882;2023-07-30T03:51:14;16.50;99.90
75210;DHT22;63796;53.136;14.882;2023-07-30T03:53:41;16.50;99.90
75210;DHT22;63796;53.136;14.882;2023-07-30T03:56:09;16.50;99.90
75210;DHT22;63796;53.136;14.882;2023-07-30T03:58:36;16.60;99.90
75210;DHT22;63796;53.136;14.882;2023-07-30T04:01:03;16.60;99.90
75210;DHT22;63796;53.136;14.882;2023-07-30T04:03:31;16.70;99.90
75210;DHT22;63796;53.136;14.882;2023-07-30T04:05:58;16.80;99.90
75210;DHT22;63796;53.136;14.882;2023-07-30T04:08:25;16.80;99.90
75210;DHT22;63796;53.136;14.882;2023-07-30T04:10:52;16.90;99.90
75210;DHT22;63796;53.136;14.882;2023-07-30T04:13:19;17.00;99.90
75210;DHT22;63796;53.136;14.882;2023-07-30T04:15:47;17.10;99.90
75210;DHT22;63796;53.136;14.882;2023-07-30T04:18:14;17.00;99.90
75210;DHT22;63796;53.136;14.882;2023-07-30T04:20:41;17.20;99.90
75210;DHT22;63796;53.136;14.882;2023-07-30T04:23:09;17.20;99.90
75210;DHT22;63796;53.136;14.882;2023-07-30T04:25:36;17.30;99.90
75210;DHT22;63796;53.136;14.882;2023-07-30T04:28:03;17.60;99.90
75210;DHT22;63796;53.136;14.882;2023-07-30T04:30:30;17.80;99.90
75210;DHT22;63796;53.136;14.882;2023-07-30T04:32:57;18.00;99.90
75210;DHT22;63796;53.136;14.882;2023-07-30T04:35:24;18.30;99.90
75210;DHT22;63796;53.136;14.882;2023-07-30T04:37:51;18.50;99.90
75210;DHT22;63796;53.136;14.882;2023-07-30T04:40:18;18.60;99.90
75210;DHT22;63796;53.136;14.882;2023-07-30T04:42:45;19.00;99.90
75210;DHT22;63796;53.136;14.882;2023-07-30T04:45:13;19.20;99.90
75210;DHT22;63796;53.136;14.882;2023-07-30T04:47:40;20.00;99.90
75210;DHT22;63796;53.136;14.882;2023-07-30T04:50:07;20.80;99.90
75210;DHT22;63796;53.136;14.882;2023-07-30T04:52:34;21.10;99.90
75210;DHT22;63796;53.136;14.882;2023-07-30T04:55:01;22.20;99.90
75210;DHT22;63796;53.136;14.882;2023-07-30T04:57:29;22.60;99.90
75210;DHT22;63796;53.136;14.882;2023-07-30T04:59:56;22.20;99.90
75210;DHT22;63796;53.136;14.882;2023-07-30T05:02:23;21.90;99.90
75210;DHT22;63796;53.136;14.882;2023-07-30T05:04:50;20.30;99.90
75210;DHT22;63796;53.136;14.882;2023-07-30T05:07:17;19.60;99.90
75210;DHT22;63796;53.136;14.882;2023-07-30T05:09:44;19.40;99.90
75210;DHT22;63796;53.136;14.882;2023-07-30T05:12:11;19.40;99.90
75210;DHT22;63796;53.136;14.882;2023-07-30T05:14:38;19.20;99.90
75210;DHT22;63796;53.136;14.882;2023-07-30T05:17:05;19.70;99.90
75210;DHT22;63796;53.136;14.882;2023-07-30T05:19:32;19.60;99.90
75210;DHT22;63796;53.136;14.882;2023-07-30T05:22:00;19.60;99.90
75210;DHT22;63796;53.136;14.882;2023-07-30T05:24:28;19.40;99.90
75210;DHT22;63796;53.136;14.882;2023-07-30T05:26:55;19.30;99.90
75210;DHT22;63796;53.136;14.882;2023-07-30T05:29:22;19.50;99.90
75210;DHT22;63796;53.136;14.882;2023-07-30T05:31:50;19.30;99.90
75210;DHT22;63796;53.136;14.882;2023-07-30T05:34:17;19.40;99.90
75210;DHT22;63796;53.136;14.882;2023-07-30T05:36:44;19.70;99.90
75210;DHT22;63796;53.136;14.882;2023-07-30T05:39:11;19.70;99.90
75210;DHT22;63796;53.136;14.882;2023-07-30T05:41:38;19.90;99.90
75210;DHT22;63796;53.136;14.882;2023-07-30T05:44:06;20.10;99.90
75210;DHT22;63796;53.136;14.882;2023-07-30T05:46:33;20.20;99.90
75210;DHT22;63796;53.136;14.882;2023-07-30T05:49:00;20.30;99.90
75210;DHT22;63796;53.136;14.882;2023-07-30T05:51:27;20.50;99.90
75210;DHT22;63796;53.136;14.882;2023-07-30T05:53:54;21.00;99.90
75210;DHT22;63796;53.136;14.882;2023-07-30T05:56:21;21.20;99.90
75210;DHT22;63796;53.136;14.882;2023-07-30T05:58:48;21.70;99.90
75210;DHT22;63796;53.136;14.882;2023-07-30T06:01:16;22.00;99.90
75210;DHT22;63796;53.136;14.882;2023-07-30T06:03:43;21.50;99.90
75210;DHT22;63796;53.136;14.882;2023-07-30T06:06:10;21.70;99.90
75210;DHT22;63796;53.136;14.882;2023-07-30T06:08:37;22.20;99.90
75210;DHT22;63796;53.136;14.882;2023-07-30T06:11:04;21.60;99.90
75210;DHT22;63796;53.136;14.882;2023-07-30T06:13:31;21.30;99.90
75210;DHT22;63796;53.136;14.882;2023-07-30T06:15:59;21.60;99.90
75210;DHT22;63796;53.136;14.882;2023-07-30T06:18:26;21.60;99.90
75210;DHT22;63796;53.136;14.882;2023-07-30T06:20:53;21.90;99.90
75210;DHT22;63796;53.136;14.882;2023-07-30T06:23:20;22.20;99.90
75210;DHT22;63796;53.136;14.882;2023-07-30T06:25:47;22.50;99.90
75210;DHT22;63796;53.136;14.882;2023-07-30T06:28:14;22.10;99.90
75210;DHT22;63796;53.136;14.882;2023-07-30T06:30:41;21.50;99.90
75210;DHT22;63796;53.136;14.882;2023-07-30T06:33:08;21.20;99.90
75210;DHT22;63796;53.136;14.882;2023-07-30T06:35:36;21.10;99.90
75210;DHT22;63796;53.136;14.882;2023-07-30T06:38:05;21.30;99.90
75210;DHT22;63796;53.136;14.882;2023-07-30T06:40:35;21.90;99.90
75210;DHT22;63796;53.136;14.882;2023-07-30T06:43:02;22.70;99.90
75210;DHT22;63796;53.136;14.882;2023-07-30T06:45:29;24.20;99.90
75210;DHT22;63796;53.136;14.882;2023-07-30T06:47:56;25.40;99.90
75210;DHT22;63796;53.136;14.882;2023-07-30T06:50:23;26.50;99.90
75210;DHT22;63796;53.136;14.882;2023-07-30T06:52:50;27.00;99.90
75210;DHT22;63796;53.136;14.882;2023-07-30T06:55:17;27.20;99.90
75210;DHT22;63796;53.136;14.882;2023-07-30T06:57:44;27.90;99.90
75210;DHT22;63796;53.136;14.882;2023-07-30T07:00:12;28.50;99.90
75210;DHT22;63796;53.136;14.882;2023-07-30T07:02:40;30.40;99.90
75210;DHT22;63796;53.136;14.882;2023-07-30T07:05:07;32.30;99.90
75210;DHT22;63796;53.136;14.882;2023-07-30T07:07:34;33.30;99.90
75210;DHT22;63796;53.136;14.882;2023-07-30T07:10:01;32.00;99.90
75210;DHT22;63796;53.136;14.882;2023-07-30T07:12:29;31.00;99.90
75210;DHT22;63796;53.136;14.882;2023-07-30T07:14:56;32.20;99.90
75210;DHT22;63796;53.136;14.882;2023-07-30T07:17:25;31.80;99.90
75210;DHT22;63796;53.136;14.882;2023-07-30T07:19:52;33.40;99.90
75210;DHT22;63796;53.136;14.882;2023-07-30T07:22:19;34.50;99.90
75210;DHT22;63796;53.136;14.882;2023-07-30T07:24:46;34.70;98.30
75210;DHT22;63796;53.136;14.882;2023-07-30T07:27:13;34.40;99.10
75210;DHT22;63796;53.136;14.882;2023-07-30T07:29:40;33.70;95.60
75210;DHT22;63796;53.136;14.882;2023-07-30T07:32:08;35.30;97.60
75210;DHT22;63796;53.136;14.882;2023-07-30T07:34:35;34.50;96.00
75210;DHT22;63796;53.136;14.882;2023-07-30T07:37:03;35.00;97.00
75210;DHT22;63796;53.136;14.882;2023-07-30T07:39:30;35.20;95.80
75210;DHT22;63796;53.136;14.882;2023-07-30T07:41:59;33.60;96.40
75210;DHT22;63796;53.136;14.882;2023-07-30T07:44:26;33.20;98.00
75210;DHT22;63796;53.136;14.882;2023-07-30T07:46:54;33.30;96.90
75210;DHT22;63796;53.136;14.882;2023-07-30T07:49:21;34.80;95.80
75210;DHT22;63796;53.136;14.882;2023-07-30T07:51:48;37.10;93.40
75210;DHT22;63796;53.136;14.882;2023-07-30T07:54:15;37.60;91.40
75210;DHT22;63796;53.136;14.882;2023-07-30T07:56:43;34.70;92.50
75210;DHT22;63796;53.136;14.882;2023-07-30T07:59:10;35.30;93.60
75210;DHT22;63796;53.136;14.882;2023-07-30T08:01:37;37.80;91.30
75210;DHT22;63796;53.136;14.882;2023-07-30T08:04:04;34.40;93.40
75210;DHT22;63796;53.136;14.882;2023-07-30T08:06:32;35.30;94.80
75210;DHT22;63796;53.136;14.882;2023-07-30T08:08:59;36.20;91.50
75210;DHT22;63796;53.136;14.882;2023-07-30T08:11:26;31.70;96.10
75210;DHT22;63796;53.136;14.882;2023-07-30T08:13:53;32.70;94.90
75210;DHT22;63796;53.136;14.882;2023-07-30T08:16:20;30.30;98.90
75210;DHT22;63796;53.136;14.882;2023-07-30T08:18:48;33.20;95.10
75210;DHT22;63796;53.136;14.882;2023-07-30T08:21:15;34.10;94.50
75210;DHT22;63796;53.136;14.882;2023-07-30T08:23:45;30.70;99.70
75210;DHT22;63796;53.136;14.882;2023-07-30T08:26:13;29.60;99.90
75210;DHT22;63796;53.136;14.882;2023-07-30T08:28:40;29.70;99.90
75210;DHT22;63796;53.136;14.882;2023-07-30T08:31:07;29.00;99.90
75210;DHT22;63796;53.136;14.882;2023-07-30T08:33:34;27.00;99.90
75210;DHT22;63796;53.136;14.882;2023-07-30T08:36:01;28.60;99.90
75210;DHT22;63796;53.136;14.882;2023-07-30T08:38:28;32.50;98.30
75210;DHT22;63796;53.136;14.882;2023-07-30T08:40:57;32.20;99.30
75210;DHT22;63796;53.136;14.882;2023-07-30T08:43:24;33.30;96.10
75210;DHT22;63796;53.136;14.882;2023-07-30T08:45:51;33.00;96.80
75210;DHT22;63796;53.136;14.882;2023-07-30T08:48:18;34.90;96.00
75210;DHT22;63796;53.136;14.882;2023-07-30T08:50:45;30.20;99.90
75210;DHT22;63796;53.136;14.882;2023-07-30T08:53:15;27.70;99.90
75210;DHT22;63796;53.136;14.882;2023-07-30T08:55:42;28.40;99.90
75210;DHT22;63796;53.136;14.882;2023-07-30T08:58:09;29.20;99.90
75210;DHT22;63796;53.136;14.882;2023-07-30T09:00:38;27.20;99.90
75210;DHT22;63796;53.136;14.882;2023-07-30T09:03:07;28.60;99.90
75210;DHT22;63796;53.136;14.882;2023-07-30T09:05:35;30.50;99.90
75210;DHT22;63796;53.136;14.882;2023-07-30T09:08:04;30.50;98.90
75210;DHT22;63796;53.136;14.882;2023-07-30T09:10:33;28.40;99.90
75210;DHT22;63796;53.136;14.882;2023-07-30T09:13:01;26.00;99.90
75210;DHT22;63796;53.136;14.882;2023-07-30T09:15:30;30.00;99.90
75210;DHT22;63796;53.136;14.882;2023-07-30T09:18:02;29.20;99.90
75210;DHT22;63796;53.136;14.882;2023-07-30T09:20:36;27.50;99.90
75210;DHT22;63796;53.136;14.882;2023-07-30T09:23:05;26.40;99.90
75210;DHT22;63796;53.136;14.882;2023-07-30T09:25:34;29.30;99.90
75210;DHT22;63796;53.136;14.882;2023-07-30T09:28:01;28.50;99.90
75210;DHT22;63796;53.136;14.882;2023-07-30T09:30:29;30.50;99.90
75210;DHT22;63796;53.136;14.882;2023-07-30T09:32:56;29.70;99.90
75210;DHT22;63796;53.136;14.882;2023-07-30T09:35:25;30.30;99.90
75210;DHT22;63796;53.136;14.882;2023-07-30T09:38:00;31.60;99.50
75210;DHT22;63796;53.136;14.882;2023-07-30T09:40:32;28.90;99.90
75210;DHT22;63796;53.136;14.882;2023-07-30T09:43:00;28.40;99.90
75210;DHT22;63796;53.136;14.882;2023-07-30T09:45:31;28.30;99.90
75210;DHT22;63796;53.136;14.882;2023-07-30T09:48:02;29.80;99.90
75210;DHT22;63796;53.136;14.882;2023-07-30T09:50:36;35.00;94.70
75210;DHT22;63796;53.136;14.882;2023-07-30T09:53:04;34.10;93.20
75210;DHT22;63796;53.136;14.882;2023-07-30T09:55:32;31.00;98.10
75210;DHT22;63796;53.136;14.882;2023-07-30T09:57:59;33.50;95.90
75210;DHT22;63796;53.136;14.882;2023-07-30T10:00:27;32.50;95.70
75210;DHT22;63796;53.136;14.882;2023-07-30T10:02:56;33.10;94.30
75210;DHT22;63796;53.136;14.882;2023-07-30T10:05:28;33.60;96.10
75210;DHT22;63796;53.136;14.882;2023-07-30T10:08:03;34.50;93.20
75210;DHT22;63796;53.136;14.882;2023-07-30T10:10:39;32.90;94.80
75210;DHT22;63796;53.136;14.882;2023-07-30T10:13:09;28.80;99.90
75210;DHT22;63796;53.136;14.882;2023-07-30T10:15:38;30.00;99.90
75210;DHT22;63796;53.136;14.882;2023-07-30T10:18:06;28.50;99.90
75210;DHT22;63796;53.136;14.882;2023-07-30T10:20:33;27.80;99.90
75210;DHT22;63796;53.136;14.882;2023-07-30T10:23:01;27.30;99.90
75210;DHT22;63796;53.136;14.882;2023-07-30T10:25:45;27.10;99.90
75210;DHT22;63796;53.136;14.882;2023-07-30T10:28:32;29.30;99.90
75210;DHT22;63796;53.136;14.882;2023-07-30T10:31:01;32.90;98.60
75210;DHT22;63796;53.136;14.882;2023-07-30T10:33:50;32.90;96.10
75210;DHT22;63796;53.136;14.882;2023-07-30T10:39:12;35.30;91.30
75210;DHT22;63796;53.136;14.882;2023-07-30T10:41:56;37.90;85.80
75210;DHT22;63796;53.136;14.882;2023-07-30T10:44:31;35.90;86.60
75210;DHT22;63796;53.136;14.882;2023-07-30T10:47:00;37.50;86.30
75210;DHT22;63796;53.136;14.882;2023-07-30T10:49:30;37.40;82.60
75210;DHT22;63796;53.136;14.882;2023-07-30T10:52:02;31.10;93.80
75210;DHT22;63796;53.136;14.882;2023-07-30T10:54:33;29.90;93.80
75210;DHT22;63796;53.136;14.882;2023-07-30T10:57:02;30.50;94.20
75210;DHT22;63796;53.136;14.882;2023-07-30T10:59:36;29.80;95.50
75210;DHT22;63796;53.136;14.882;2023-07-30T11:02:05;30.30;97.20
75210;DHT22;63796;53.136;14.882;2023-07-30T11:04:35;29.10;99.60
75210;DHT22;63796;53.136;14.882;2023-07-30T11:07:02;28.30;99.90
75210;DHT22;63796;53.136;14.882;2023-07-30T11:09:31;27.20;99.90
75210;DHT22;63796;53.136;14.882;2023-07-30T11:11:58;27.10;99.90
75210;DHT22;63796;53.136;14.882;2023-07-30T11:14:25;27.40;99.90
75210;DHT22;63796;53.136;14.882;2023-07-30T11:16:54;27.20;99.90
75210;DHT22;63796;53.136;14.882;2023-07-30T11:19:22;31.90;96.20
75210;DHT22;63796;53.136;14.882;2023-07-30T11:21:50;34.60;90.60
75210;DHT22;63796;53.136;14.882;2023-07-30T11:24:20;34.70;90.50
75210;DHT22;63796;53.136;14.882;2023-07-30T11:26:57;35.70;84.80
75210;DHT22;63796;53.136;14.882;2023-07-30T11:29:26;36.40;79.80
75210;DHT22;63796;53.136;14.882;2023-07-30T11:31:57;34.60;78.00
75210;DHT22;63796;53.136;14.882;2023-07-30T11:34:26;34.00;81.70
75210;DHT22;63796;53.136;14.882;2023-07-30T11:36:54;34.10;83.50
75210;DHT22;63796;53.136;14.882;2023-07-30T11:39:23;34.10;81.50
75210;DHT22;63796;53.136;14.882;2023-07-30T11:41:50;36.40;80.10
75210;DHT22;63796;53.136;14.882;2023-07-30T11:44:37;37.80;76.80
75210;DHT22;63796;53.136;14.882;2023-07-30T11:47:06;38.70;73.10
75210;DHT22;63796;53.136;14.882;2023-07-30T11:49:33;34.10;75.40
75210;DHT22;63796;53.136;14.882;2023-07-30T11:52:07;34.40;77.80
75210;DHT22;63796;53.136;14.882;2023-07-30T11:54:36;32.40;83.20
75210;DHT22;63796;53.136;14.882;2023-07-30T11:57:03;33.50;80.00
75210;DHT22;63796;53.136;14.882;2023-07-30T11:59:31;33.70;78.10
75210;DHT22;63796;53.136;14.882;2023-07-30T12:01:58;35.60;75.10
75210;DHT22;63796;53.136;14.882;2023-07-30T12:04:30;36.00;71.30
75210;DHT22;63796;53.136;14.882;2023-07-30T12:06:58;37.20;70.10
75210;DHT22;63796;53.136;14.882;2023-07-30T12:09:25;38.70;68.00
75210;DHT22;63796;53.136;14.882;2023-07-30T12:11:57;37.50;64.00
75210;DHT22;63796;53.136;14.882;2023-07-30T12:14:29;38.00;64.10
75210;DHT22;63796;53.136;14.882;2023-07-30T12:17:09;37.10;65.30
75210;DHT22;63796;53.136;14.882;2023-07-30T12:19:36;35.60;74.60
75210;DHT22;63796;53.136;14.882;2023-07-30T12:22:03;34.30;77.30
75210;DHT22;63796;53.136;14.882;2023-07-30T12:24:30;32.00;82.10
75210;DHT22;63796;53.136;14.882;2023-07-30T12:26:58;32.10;81.60
75210;DHT22;63796;53.136;14.882;2023-07-30T12:29:25;32.50;73.30
75210;DHT22;63796;53.136;14.882;2023-07-30T12:31:52;30.60;79.80
75210;DHT22;63796;53.136;14.882;2023-07-30T12:34:23;30.30;86.90
75210;DHT22;63796;53.136;14.882;2023-07-30T12:36:51;29.90;87.60
75210;DHT22;63796;53.136;14.882;2023-07-30T12:39:18;30.10;88.40
75210;DHT22;63796;53.136;14.882;2023-07-30T12:41:46;30.50;88.60
75210;DHT22;63796;53.136;14.882;2023-07-30T12:44:13;30.20;89.10
75210;DHT22;63796;53.136;14.882;2023-07-30T12:46:40;29.80;90.00
75210;DHT22;63796;53.136;14.882;2023-07-30T12:49:08;30.00;86.60
75210;DHT22;63796;53.136;14.882;2023-07-30T12:51:35;29.80;87.90
75210;DHT22;63796;53.136;14.882;2023-07-30T12:54:02;30.10;87.20
75210;DHT22;63796;53.136;14.882;2023-07-30T12:56:30;30.30;86.40
75210;DHT22;63796;53.136;14.882;2023-07-30T12:58:57;29.70;88.20
75210;DHT22;63796;53.136;14.882;2023-07-30T13:01:24;29.10;88.10
75210;DHT22;63796;53.136;14.882;2023-07-30T13:03:52;29.00;86.40
75210;DHT22;63796;53.136;14.882;2023-07-30T13:06:21;29.60;90.00
75210;DHT22;63796;53.136;14.882;2023-07-30T13:08:48;29.90;88.50
75210;DHT22;63796;53.136;14.882;2023-07-30T13:11:15;29.50;88.60
75210;DHT22;63796;53.136;14.882;2023-07-30T13:13:42;29.50;88.60
75210;DHT22;63796;53.136;14.882;2023-07-30T13:16:09;29.30;89.00
75210;DHT22;63796;53.136;14.882;2023-07-30T13:18:36;29.80;88.30
75210;DHT22;63796;53.136;14.882;2023-07-30T13:21:03;29.90;85.80
75210;DHT22;63796;53.136;14.882;2023-07-30T13:23:31;29.60;86.70
75210;DHT22;63796;53.136;14.882;2023-07-30T13:25:59;29.80;87.10
75210;DHT22;63796;53.136;14.882;2023-07-30T13:28:27;29.20;86.10
75210;DHT22;63796;53.136;14.882;2023-07-30T13:30:54;29.70;89.90
75210;DHT22;63796;53.136;14.882;2023-07-30T13:33:21;29.60;87.60
75210;DHT22;63796;53.136;14.882;2023-07-30T13:35:48;29.00;86.90
75210;DHT22;63796;53.136;14.882;2023-07-30T13:38:15;28.70;90.00
75210;DHT22;63796;53.136;14.882;2023-07-30T13:40:42;28.90;90.20
75210;DHT22;63796;53.136;14.882;2023-07-30T13:43:10;28.70;90.70
75210;DHT22;63796;53.136;14.882;2023-07-30T13:45:37;28.90;91.70
75210;DHT22;63796;53.136;14.882;2023-07-30T13:48:04;28.80;90.80
75210;DHT22;63796;53.136;14.882;2023-07-30T13:50:31;28.60;92.10
75210;DHT22;63796;53.136;14.882;2023-07-30T13:52:58;28.50;91.90
75210;DHT22;63796;53.136;14.882;2023-07-30T13:55:25;28.50;92.30
75210;DHT22;63796;53.136;14.882;2023-07-30T13:57:52;28.60;91.30
75210;DHT22;63796;53.136;14.882;2023-07-30T14:00:19;28.20;91.70
75210;DHT22;63796;53.136;14.882;2023-07-30T14:02:47;28.70;91.90
75210;DHT22;63796;53.136;14.882;2023-07-30T14:05:14;28.80;90.40
75210;DHT22;63796;53.136;14.882;2023-07-30T14:07:41;28.90;90.50
75210;DHT22;63796;53.136;14.882;2023-07-30T14:10:09;28.60;90.80
75210;DHT22;63796;53.136;14.882;2023-07-30T14:12:37;28.50;91.50
75210;DHT22;63796;53.136;14.882;2023-07-30T14:15:04;28.80;92.10
75210;DHT22;63796;53.136;14.882;2023-07-30T14:17:32;28.20;90.40
75210;DHT22;63796;53.136;14.882;2023-07-30T14:19:59;28.20;91.50
75210;DHT22;63796;53.136;14.882;2023-07-30T14:22:26;28.00;90.20
75210;DHT22;63796;53.136;14.882;2023-07-30T14:24:53;27.70;89.80
75210;DHT22;63796;53.136;14.882;2023-07-30T14:27:20;27.10;90.20
75210;DHT22;63796;53.136;14.882;2023-07-30T14:29:47;27.00;92.90
75210;DHT22;63796;53.136;14.882;2023-07-30T14:32:15;27.20;91.40
75210;DHT22;63796;53.136;14.882;2023-07-30T14:34:42;27.00;91.00
75210;DHT22;63796;53.136;14.882;2023-07-30T14:37:09;26.30;92.10
75210;DHT22;63796;53.136;14.882;2023-07-30T14:39:36;26.30;92.60
75210;DHT22;63796;53.136;14.882;2023-07-30T14:42:03;26.20;91.30
75210;DHT22;63796;53.136;14.882;2023-07-30T14:44:30;26.50;92.60
75210;DHT22;63796;53.136;14.882;2023-07-30T14:46:58;27.00;91.30
75210;DHT22;63796;53.136;14.882;2023-07-30T14:49:29;26.70;89.20
75210;DHT22;63796;53.136;14.882;2023-07-30T14:51:56;26.50;89.20
75210;DHT22;63796;53.136;14.882;2023-07-30T14:54:31;26.50;90.30
75210;DHT22;63796;53.136;14.882;2023-07-30T14:57:00;26.70;91.40
75210;DHT22;63796;53.136;14.882;2023-07-30T14:59:30;26.70;91.50
75210;DHT22;63796;53.136;14.882;2023-07-30T15:02:01;26.70;91.40
75210;DHT22;63796;53.136;14.882;2023-07-30T15:04:31;26.80;92.40
75210;DHT22;63796;53.136;14.882;2023-07-30T15:07:07;26.80;92.00
75210;DHT22;63796;53.136;14.882;2023-07-30T15:09:35;27.20;92.50
75210;DHT22;63796;53.136;14.882;2023-07-30T15:12:03;27.00;92.70
75210;DHT22;63796;53.136;14.882;2023-07-30T15:14:34;26.70;92.60
75210;DHT22;63796;53.136;14.882;2023-07-30T15:17:01;26.70;93.80
75210;DHT22;63796;53.136;14.882;2023-07-30T15:19:31;26.80;94.00
75210;DHT22;63796;53.136;14.882;2023-07-30T15:21:58;26.80;93.40
75210;DHT22;63796;53.136;14.882;2023-07-30T15:24:26;26.50;93.90